createdAt,value
2023-03-16T00:01:50.317Z,92.97
2023-03-16T00:04:54.254Z,92.38
2023-03-16T00:07:54.283Z,93.05
2023-03-16T00:10:54.348Z,91.60
2023-03-16T00:13:54.252Z,91.89
2023-03-16T00:16:54.267Z,91.63
2023-03-16T00:19:54.322Z,92.69
2023-03-16T00:22:54.262Z,93.49
2023-03-16T00:25:54.313Z,92.13
2023-03-16T00:28:54.297Z,93.76
2023-03-16T00:31:54.319Z,92.16
2023-03-16T00:34:54.292Z,92.02
2023-03-16T00:37:54.340Z,93.59
2023-03-16T00:40:54.262Z,91.51
2023-03-16T00:43:55.235Z,91.54
2023-03-16T00:46:55.303Z,92.29
2023-03-16T00:49:57.290Z,92.75
2023-03-16T00:53:00.248Z,93.34
2023-03-16T00:56:00.280Z,93.82
2023-03-16T00:59:04.261Z,93.48
2023-03-16T01:02:04.285Z,93.78
2023-03-16T01:05:05.297Z,93.34
2023-03-16T01:08:06.264Z,92.14
2023-03-16T01:11:06.262Z,92.13
2023-03-16T01:14:06.242Z,89.87
2023-03-16T01:17:07.316Z,90.33
2023-03-16T01:20:07.299Z,90.68
2023-03-16T01:23:07.262Z,88.49
2023-03-16T01:26:07.285Z,89.83
2023-03-16T01:29:07.266Z,88.66
2023-03-16T01:32:07.254Z,89.46
2023-03-16T01:35:07.252Z,89.01
2023-03-16T01:38:07.297Z,88.68
2023-03-16T01:41:08.248Z,87.93
2023-03-16T01:44:08.265Z,88.03
2023-03-16T01:47:08.272Z,88.32
2023-03-16T01:50:10.270Z,87.83
2023-03-16T01:53:10.294Z,87.75
2023-03-16T01:56:10.274Z,87.11
2023-03-16T01:59:11.255Z,87.10
2023-03-16T02:02:11.281Z,86.31
2023-03-16T02:05:30.289Z,85.03
2023-03-16T02:08:30.245Z,85.18
2023-03-16T02:11:30.259Z,86.31
2023-03-16T02:14:31.278Z,85.61
2023-03-16T02:17:36.257Z,84.63
2023-03-16T02:21:23.266Z,84.98
2023-03-16T02:24:23.287Z,85.29
2023-03-16T02:27:30.233Z,84.44
2023-03-16T02:30:32.262Z,84.56
2023-03-16T02:33:33.270Z,84.39
2023-03-16T02:36:27.260Z,84.63
2023-03-16T02:39:13.291Z,85.12
2023-03-16T02:42:14.277Z,85.31
2023-03-16T02:45:14.273Z,85.39
2023-03-16T02:48:16.259Z,86.03
2023-03-16T02:51:16.461Z,86.03
2023-03-16T02:54:16.222Z,85.93
2023-03-16T02:57:16.285Z,85.61
2023-03-16T03:00:25.276Z,86.69
2023-03-16T03:03:25.345Z,86.62
2023-03-16T03:06:25.248Z,86.23
2023-03-16T03:09:25.285Z,86.19
2023-03-16T03:12:25.276Z,86.10
2023-03-16T03:15:25.293Z,87.20
2023-03-16T03:18:26.226Z,86.86
2023-03-16T03:21:26.273Z,86.87
2023-03-16T03:24:26.266Z,86.26
2023-03-16T03:27:26.310Z,86.34
2023-03-16T03:30:34.242Z,86.74
2023-03-16T03:33:34.233Z,86.56
2023-03-16T03:36:34.306Z,86.78
2023-03-16T03:39:34.273Z,87.54
2023-03-16T03:42:34.255Z,87.56
2023-03-16T03:45:34.255Z,87.20
2023-03-16T03:48:34.284Z,87.55
2023-03-16T03:51:34.244Z,87.08
2023-03-16T03:54:34.255Z,87.82
2023-03-16T03:57:35.251Z,87.73
2023-03-16T04:00:28.525Z,87.72
2023-03-16T04:03:08.566Z,88.32
2023-03-16T04:05:55.234Z,87.81
2023-03-16T04:08:41.288Z,88.04
2023-03-16T04:11:41.262Z,87.54
2023-03-16T04:14:41.237Z,87.02
2023-03-16T04:17:41.234Z,88.08
2023-03-16T04:20:41.290Z,87.64
2023-03-16T04:23:41.291Z,86.91
2023-03-16T04:26:41.236Z,87.49
2023-03-16T04:29:41.237Z,87.52
2023-03-16T04:32:41.259Z,87.67
2023-03-16T04:35:42.294Z,87.34
2023-03-16T04:38:43.255Z,87.27
2023-03-16T04:41:43.245Z,87.69
2023-03-16T04:44:50.233Z,87.27
2023-03-16T04:47:50.242Z,86.37
2023-03-16T04:50:50.265Z,85.81
2023-03-16T04:53:51.246Z,85.99
2023-03-16T04:56:52.264Z,85.93
2023-03-16T04:59:52.285Z,85.64
2023-03-16T05:02:52.232Z,85.94
2023-03-16T05:05:52.321Z,85.79
2023-03-16T05:08:53.239Z,85.02
2023-03-16T05:11:53.249Z,86.19
2023-03-16T05:14:53.267Z,85.29
2023-03-16T05:17:54.257Z,84.99
2023-03-16T05:20:55.239Z,85.60
2023-03-16T05:23:57.274Z,84.43
2023-03-16T05:26:57.278Z,84.78
2023-03-16T05:29:57.233Z,85.07
2023-03-16T05:32:58.341Z,85.78
2023-03-16T05:35:58.325Z,85.17
2023-03-16T05:38:59.298Z,85.67
2023-03-16T05:42:01.250Z,85.50
2023-03-16T05:45:02.284Z,85.47
2023-03-16T05:48:02.278Z,85.57
2023-03-16T05:51:04.246Z,85.72
2023-03-16T05:54:04.265Z,85.11
2023-03-16T05:57:05.305Z,84.31
2023-03-16T06:00:05.248Z,83.94
2023-03-16T06:03:23.277Z,84.26
2023-03-16T06:06:24.235Z,84.03
2023-03-16T06:09:24.258Z,83.00
2023-03-16T06:12:25.386Z,83.14
2023-03-16T06:15:26.219Z,82.33
2023-03-16T06:18:37.355Z,82.09
2023-03-16T06:21:49.319Z,80.84
2023-03-16T06:25:01.067Z,81.06
2023-03-16T06:28:12.917Z,80.39
2023-03-16T06:31:27.362Z,79.45
2023-03-16T06:34:31.674Z,79.57
2023-03-16T06:37:35.377Z,77.97
2023-03-16T06:40:36.789Z,77.17
2023-03-16T06:43:36.376Z,77.24
2023-03-16T06:46:58.624Z,77.07
2023-03-16T06:53:02.577Z,76.26
2023-03-16T06:56:10.440Z,74.57
2023-03-16T06:59:10.321Z,74.08
2023-03-16T07:02:10.426Z,73.82
2023-03-16T07:05:22.764Z,73.02
2023-03-16T07:08:40.352Z,71.94
2023-03-16T07:11:53.712Z,72.45
2023-03-16T07:14:59.153Z,73.22
2023-03-16T07:18:04.284Z,73.25
2023-03-16T07:21:10.348Z,73.21
2023-03-16T07:24:13.374Z,73.31
2023-03-16T07:27:13.227Z,73.64
2023-03-16T07:30:14.391Z,73.59
2023-03-16T07:33:18.360Z,73.02
2023-03-16T07:36:18.323Z,73.19
2023-03-16T07:39:23.974Z,72.52
2023-03-16T07:42:53.312Z,72.51
2023-03-16T07:45:55.308Z,71.24
2023-03-16T07:48:56.276Z,70.65
2023-03-16T07:51:59.234Z,69.90
2023-03-16T07:55:00.233Z,68.00
2023-03-16T07:58:08.369Z,65.86
2023-03-16T08:01:15.701Z,63.89
2023-03-16T08:04:19.284Z,61.50
2023-03-16T08:07:19.260Z,60.42
2023-03-16T08:10:19.300Z,61.35
2023-03-16T08:13:20.250Z,60.99
2023-03-16T08:16:22.926Z,60.72
2023-03-16T08:19:24.296Z,59.10
2023-03-16T08:22:25.239Z,57.94
2023-03-16T08:25:26.253Z,57.42
2023-03-16T08:28:28.305Z,57.08
2023-03-16T08:31:32.326Z,58.94
2023-03-16T08:34:33.342Z,59.21
2023-03-16T08:37:34.371Z,60.93
2023-03-16T08:40:36.282Z,62.46
2023-03-16T08:43:36.253Z,63.01
2023-03-16T08:46:36.314Z,62.72
2023-03-16T08:49:31.518Z,61.74
2023-03-16T08:52:34.189Z,58.21
2023-03-16T08:55:39.630Z,57.25
2023-03-16T09:01:38.432Z,52.71
2023-03-16T09:04:39.313Z,53.72
2023-03-16T09:07:45.534Z,54.80
2023-03-16T09:11:47.071Z,52.51
2023-03-16T09:14:54.297Z,50.48
2023-03-16T09:17:58.577Z,49.73
2023-03-16T09:20:59.988Z,50.13
2023-03-16T09:24:01.260Z,51.73
2023-03-16T09:27:03.496Z,51.18
2023-03-16T09:30:07.267Z,49.13
2023-03-16T09:33:07.337Z,45.58
2023-03-16T09:36:14.114Z,46.07
2023-03-16T09:39:15.292Z,46.69
2023-03-16T09:42:31.501Z,46.66
2023-03-16T09:45:48.357Z,47.12
2023-03-16T09:48:49.265Z,48.94
2023-03-16T09:51:56.248Z,48.95
2023-03-16T09:55:21.502Z,48.69
2023-03-16T09:58:32.649Z,49.91
2023-03-16T10:02:21.306Z,48.78
2023-03-16T10:05:24.420Z,48.82
2023-03-16T10:08:38.694Z,48.59
2023-03-16T10:11:59.034Z,47.55
2023-03-16T10:15:23.264Z,46.76
2023-03-16T10:18:30.245Z,45.54
2023-03-16T10:21:33.277Z,44.93
2023-03-16T10:24:58.309Z,42.44
2023-03-16T10:27:59.360Z,43.36
2023-03-16T10:31:04.290Z,42.52
2023-03-16T10:34:10.278Z,40.84
2023-03-16T10:37:11.358Z,39.57
2023-03-16T10:40:11.257Z,40.03
2023-03-16T10:43:11.265Z,39.37
2023-03-16T10:46:18.390Z,40.54
2023-03-16T10:49:45.119Z,39.57
2023-03-16T10:52:59.320Z,38.47
2023-03-16T10:56:23.167Z,38.82
2023-03-16T10:59:42.380Z,38.63
2023-03-16T11:02:47.358Z,37.07
2023-03-16T11:05:48.298Z,35.86
2023-03-16T11:09:43.953Z,35.81
2023-03-16T11:12:28.354Z,37.47
2023-03-16T11:15:28.383Z,36.79
2023-03-16T11:18:46.285Z,37.38
2023-03-16T11:22:13.379Z,36.41
2023-03-16T11:25:17.463Z,38.61
2023-03-16T11:28:20.269Z,41.25
2023-03-16T11:31:25.406Z,38.39
2023-03-16T11:34:46.237Z,37.81
2023-03-16T11:38:01.340Z,37.88
2023-03-16T11:41:28.657Z,36.24
2023-03-16T11:44:43.319Z,34.27
2023-03-16T11:48:10.063Z,34.54
2023-03-16T11:51:31.322Z,34.21
2023-03-16T11:55:08.311Z,33.90
2023-03-16T11:58:38.293Z,34.80
2023-03-16T12:02:15.494Z,37.16
2023-03-16T12:05:44.950Z,34.37
2023-03-16T12:08:54.318Z,33.06
2023-03-16T12:12:12.288Z,32.87
2023-03-16T12:15:31.846Z,33.42
2023-03-16T12:18:36.311Z,31.74
2023-03-16T12:21:39.304Z,30.94
2023-03-16T12:24:43.312Z,31.87
2023-03-16T12:27:49.331Z,32.56
2023-03-16T12:30:58.271Z,36.32
2023-03-16T12:34:03.322Z,36.02
2023-03-16T12:37:16.329Z,36.87
2023-03-16T12:40:32.958Z,36.06
2023-03-16T12:44:07.332Z,37.51
2023-03-16T12:50:37.281Z,36.77
2023-03-16T12:53:41.284Z,36.20
2023-03-16T12:56:58.231Z,35.84
2023-03-16T13:00:00.309Z,36.21
2023-03-16T13:03:06.312Z,36.49
2023-03-16T13:06:10.279Z,35.23
2023-03-16T13:09:11.324Z,35.56
2023-03-16T13:12:14.466Z,35.10
2023-03-16T13:15:14.298Z,35.82
2023-03-16T13:18:19.324Z,35.76
2023-03-16T13:21:52.278Z,34.60
2023-03-16T13:24:53.256Z,35.54
2023-03-16T13:27:47.323Z,35.08
2023-03-16T13:30:29.765Z,35.87
2023-03-16T13:33:27.331Z,34.67
2023-03-16T13:36:07.460Z,35.57
2023-03-16T13:39:17.312Z,35.84
2023-03-16T13:42:30.330Z,37.27
2023-03-16T13:45:33.648Z,39.69
2023-03-16T13:48:34.290Z,40.09
2023-03-16T13:51:35.280Z,40.12
2023-03-16T13:54:43.309Z,39.15
2023-03-16T13:57:46.293Z,39.41
2023-03-16T14:00:49.309Z,39.45
2023-03-16T14:03:52.276Z,40.33
2023-03-16T14:06:52.301Z,41.59
2023-03-16T14:09:53.292Z,42.91
2023-03-16T14:12:53.287Z,43.28
2023-03-16T14:15:53.393Z,40.88
2023-03-16T14:19:31.329Z,40.13
2023-03-16T14:22:37.301Z,40.20
2023-03-16T14:25:39.325Z,40.96
2023-03-16T14:28:45.291Z,39.94
2023-03-16T14:31:50.376Z,38.00
2023-03-16T14:34:52.327Z,37.08
2023-03-16T14:37:52.306Z,36.33
2023-03-16T14:40:52.336Z,36.92
2023-03-16T14:43:58.286Z,37.14
2023-03-16T14:46:58.284Z,37.32
2023-03-16T14:49:58.316Z,38.72
2023-03-16T14:52:58.330Z,39.03
2023-03-16T14:55:58.318Z,38.93
2023-03-16T14:58:58.306Z,39.84
2023-03-16T15:01:58.423Z,39.79
2023-03-16T15:04:58.290Z,41.24
2023-03-16T15:07:59.295Z,39.78
2023-03-16T15:10:59.361Z,40.99
2023-03-16T15:14:10.331Z,40.99
2023-03-16T15:17:11.351Z,43.42
2023-03-16T15:20:11.297Z,42.78
2023-03-16T15:23:11.308Z,42.44
2023-03-16T15:26:14.275Z,42.82
2023-03-16T15:29:14.298Z,42.26
2023-03-16T15:32:14.292Z,43.24
2023-03-16T15:35:14.251Z,43.55
2023-03-16T15:38:21.259Z,44.10
2023-03-16T15:41:24.864Z,43.26
2023-03-16T15:44:26.344Z,42.83
2023-03-16T15:47:26.325Z,43.65
2023-03-16T15:50:27.560Z,44.02
2023-03-16T15:53:45.288Z,43.31
2023-03-16T15:56:54.622Z,43.15
2023-03-16T15:59:54.254Z,44.47
2023-03-16T16:02:54.293Z,44.15
2023-03-16T16:05:54.259Z,45.98
2023-03-16T16:08:54.311Z,46.25
2023-03-16T16:11:55.320Z,46.78
2023-03-16T16:14:55.283Z,48.54
2023-03-16T16:18:19.327Z,47.18
2023-03-16T16:21:17.262Z,47.99
2023-03-16T16:24:17.281Z,47.91
2023-03-16T16:27:17.295Z,48.15
2023-03-16T16:30:29.316Z,48.50
2023-03-16T16:33:45.304Z,48.79
2023-03-16T16:36:45.301Z,49.70
2023-03-16T16:39:45.318Z,49.88
2023-03-16T16:42:45.282Z,49.78
2023-03-16T16:45:45.348Z,50.45
2023-03-16T16:48:51.325Z,52.14
2023-03-16T16:51:51.281Z,51.51
2023-03-16T16:54:51.325Z,52.83
2023-03-16T16:57:51.286Z,53.84
2023-03-16T17:00:51.324Z,53.98
2023-03-16T17:03:51.314Z,54.62
2023-03-16T17:06:52.334Z,54.67
2023-03-16T17:09:52.286Z,55.01
2023-03-16T17:12:52.251Z,56.72
2023-03-16T17:15:53.284Z,56.52
2023-03-16T17:18:53.257Z,56.82
2023-03-16T17:21:53.323Z,57.24
2023-03-16T17:24:54.281Z,56.75
2023-03-16T17:27:54.339Z,57.30
2023-03-16T17:30:55.360Z,58.22
2023-03-16T17:33:55.351Z,58.62
2023-03-16T17:36:55.328Z,59.32
2023-03-16T17:39:57.380Z,60.19
2023-03-16T17:42:58.319Z,60.71
2023-03-16T17:45:59.324Z,60.48
2023-03-16T17:48:59.314Z,61.93
2023-03-16T17:51:59.308Z,62.15
2023-03-16T17:55:00.286Z,62.84
2023-03-16T17:58:04.277Z,63.29
2023-03-16T18:01:04.289Z,63.80
2023-03-16T18:04:04.323Z,64.04
2023-03-16T18:07:04.274Z,63.39
2023-03-16T18:10:04.322Z,64.47
2023-03-16T18:13:31.283Z,64.06
2023-03-16T18:16:37.321Z,65.39
2023-03-16T18:19:38.342Z,65.19
2023-03-16T18:22:38.251Z,65.78
2023-03-16T18:25:50.324Z,65.99
2023-03-16T18:28:50.286Z,66.91
2023-03-16T18:31:50.306Z,66.80
2023-03-16T18:34:50.278Z,67.58
2023-03-16T18:37:50.322Z,68.31
2023-03-16T18:40:50.291Z,67.91
2023-03-16T18:43:50.274Z,68.16
2023-03-16T18:46:51.335Z,68.77
2023-03-16T18:49:54.261Z,69.04
2023-03-16T18:52:54.329Z,69.38
2023-03-16T18:55:57.228Z,69.35
2023-03-16T18:58:57.295Z,68.81
2023-03-16T19:01:58.412Z,69.14
2023-03-16T19:04:58.298Z,70.07
2023-03-16T19:07:59.277Z,69.96
2023-03-16T19:11:03.278Z,70.21
2023-03-16T19:14:03.455Z,70.31
2023-03-16T19:17:03.269Z,71.07
2023-03-16T19:20:03.284Z,71.71
2023-03-16T19:23:04.256Z,71.67
2023-03-16T19:26:05.299Z,71.49
2023-03-16T19:29:05.298Z,71.96
2023-03-16T19:32:11.280Z,72.32
2023-03-16T19:35:12.270Z,72.76
2023-03-16T19:38:12.310Z,71.68
2023-03-16T19:41:13.295Z,72.68
2023-03-16T19:44:33.282Z,71.66
2023-03-16T19:47:44.307Z,71.04
2023-03-16T19:50:44.274Z,71.45
2023-03-16T19:53:44.275Z,71.09
2023-03-16T19:56:44.270Z,71.13
2023-03-16T19:59:46.318Z,70.98
2023-03-16T20:02:49.267Z,71.20
2023-03-16T20:05:49.305Z,71.47
2023-03-16T20:08:49.312Z,72.99
2023-03-16T20:11:49.259Z,72.75
2023-03-16T20:14:49.326Z,73.31
2023-03-16T20:17:50.313Z,73.97
2023-03-16T20:20:50.275Z,74.14
2023-03-16T20:23:50.291Z,74.17
2023-03-16T20:26:50.308Z,73.88
2023-03-16T20:29:50.320Z,75.21
2023-03-16T20:32:50.300Z,76.58
2023-03-16T20:35:50.277Z,75.46
2023-03-16T20:38:50.266Z,76.49
2023-03-16T20:41:50.253Z,76.94
2023-03-16T20:44:50.306Z,76.66
2023-03-16T20:47:50.267Z,76.63
2023-03-16T20:50:50.287Z,76.55
2023-03-16T20:53:50.266Z,77.02
2023-03-16T20:56:50.278Z,78.06
2023-03-16T20:59:50.261Z,78.05
2023-03-16T21:02:50.312Z,78.58
2023-03-16T21:05:50.257Z,79.30
2023-03-16T21:08:50.313Z,79.79
2023-03-16T21:11:52.245Z,80.79
2023-03-16T21:14:52.250Z,79.29
2023-03-16T21:17:52.255Z,79.96
2023-03-16T21:20:52.242Z,81.16
2023-03-16T21:23:52.294Z,81.51
2023-03-16T21:26:54.230Z,79.95
2023-03-16T21:29:47.293Z,80.30
2023-03-16T21:32:28.562Z,81.31
2023-03-16T21:35:20.326Z,81.35
2023-03-16T21:38:06.222Z,80.81
2023-03-16T21:41:06.297Z,82.01
2023-03-16T21:44:06.264Z,80.70
2023-03-16T21:47:06.289Z,81.35
2023-03-16T21:50:06.293Z,81.67
2023-03-16T21:53:06.272Z,81.19
2023-03-16T21:56:06.299Z,80.02
2023-03-16T21:59:00.258Z,80.45
2023-03-16T22:01:50.973Z,79.86
2023-03-16T22:04:45.258Z,80.23
2023-03-16T22:07:25.472Z,80.41
2023-03-16T22:10:21.281Z,80.81
2023-03-16T22:13:02.199Z,80.34
2023-03-16T22:16:03.255Z,80.47
2023-03-16T22:19:05.238Z,80.02
2023-03-16T22:22:05.290Z,80.04
2023-03-16T22:25:05.214Z,79.40
2023-03-16T22:28:05.279Z,80.09
2023-03-16T22:31:05.247Z,80.52
2023-03-16T22:34:05.295Z,80.19
2023-03-16T22:37:05.263Z,79.95
2023-03-16T22:40:05.267Z,80.42
2023-03-16T22:43:05.225Z,80.64
2023-03-16T22:46:05.278Z,82.54
2023-03-16T22:49:06.221Z,81.83
2023-03-16T22:52:08.279Z,81.81
2023-03-16T22:55:08.295Z,83.07
2023-03-16T22:58:21.253Z,82.47
2023-03-16T23:01:35.299Z,82.46
2023-03-16T23:04:40.355Z,81.83
2023-03-16T23:07:40.267Z,81.73
2023-03-16T23:10:40.243Z,81.38
2023-03-16T23:13:40.272Z,82.72
2023-03-16T23:16:41.297Z,82.15
2023-03-16T23:19:46.304Z,82.60
2023-03-16T23:22:47.287Z,83.04
2023-03-16T23:25:48.313Z,82.48
2023-03-16T23:28:48.309Z,83.47
2023-03-16T23:31:48.259Z,84.29
2023-03-16T23:34:48.297Z,84.78
2023-03-16T23:37:48.251Z,84.16
2023-03-16T23:40:50.266Z,84.63
2023-03-16T23:43:50.280Z,84.44
2023-03-16T23:46:50.224Z,83.80
2023-03-16T23:49:52.284Z,84.38
2023-03-16T23:52:52.274Z,84.38
2023-03-16T23:55:53.244Z,85.50
2023-03-16T23:58:53.266Z,85.78
